createdAt,value
2017-11-27T00:00:31.559Z,3.70
2017-11-27T00:02:59.031Z,3.70
2017-11-27T00:05:27.252Z,3.80
2017-11-27T00:07:54.724Z,3.80
2017-11-27T00:10:22.190Z,3.80
2017-11-27T00:12:49.740Z,3.80
2017-11-27T00:15:17.224Z,3.80
2017-11-27T00:17:45.453Z,3.80
2017-11-27T00:20:12.934Z,3.80
2017-11-27T00:22:41.318Z,3.80
2017-11-27T00:25:08.789Z,3.80
2017-11-27T00:27:37.012Z,3.90
2017-11-27T00:30:04.488Z,3.90
2017-11-27T00:32:31.963Z,3.80
2017-11-27T00:34:59.434Z,3.80
2017-11-27T00:37:27.675Z,3.80
2017-11-27T00:39:55.137Z,3.80
2017-11-27T00:42:22.615Z,3.80
2017-11-27T00:44:50.885Z,3.90
2017-11-27T00:47:18.368Z,3.90
2017-11-27T00:49:45.892Z,3.90
2017-11-27T00:52:13.352Z,4.00
2017-11-27T00:54:41.588Z,3.90
2017-11-27T00:57:09.049Z,3.90
2017-11-27T00:59:36.536Z,3.90
2017-11-27T01:02:03.993Z,3.80
2017-11-27T01:04:31.475Z,3.80
2017-11-27T01:06:59.700Z,3.70
2017-11-27T01:09:27.164Z,3.70
2017-11-27T01:11:54.641Z,3.70
2017-11-27T01:14:22.886Z,3.70
2017-11-27T01:16:50.344Z,3.70
2017-11-27T01:19:17.805Z,3.70
2017-11-27T01:21:45.278Z,3.80
2017-11-27T01:24:14.244Z,3.80
2017-11-27T01:26:41.721Z,3.80
2017-11-27T01:29:09.171Z,3.90
2017-11-27T01:31:36.650Z,3.90
2017-11-27T01:34:04.100Z,3.90
2017-11-27T01:36:31.572Z,3.90
2017-11-27T01:38:59.796Z,3.80
2017-11-27T01:41:27.277Z,3.80
2017-11-27T01:43:54.756Z,3.80
2017-11-27T01:46:23.007Z,3.80
2017-11-27T01:48:51.249Z,3.80
2017-11-27T01:51:18.748Z,3.70
2017-11-27T01:53:46.229Z,3.80
2017-11-27T01:56:14.474Z,3.80
2017-11-27T01:58:41.951Z,3.80
2017-11-27T02:01:10.185Z,3.90
2017-11-27T02:03:37.640Z,3.90
2017-11-27T02:06:05.112Z,3.90
2017-11-27T02:08:32.567Z,3.90
2017-11-27T02:11:00.039Z,3.90
2017-11-27T02:13:29.024Z,3.90
2017-11-27T02:15:56.483Z,3.90
2017-11-27T02:18:23.961Z,4.00
2017-11-27T02:20:52.181Z,4.00
2017-11-27T02:23:19.671Z,4.00
2017-11-27T02:25:47.115Z,4.00
2017-11-27T02:28:14.587Z,4.00
2017-11-27T02:30:43.551Z,4.00
2017-11-27T02:33:11.032Z,4.00
2017-11-27T02:35:38.497Z,4.10
2017-11-27T02:38:05.980Z,4.10
2017-11-27T02:40:34.200Z,4.00
2017-11-27T02:43:01.652Z,4.00
2017-11-27T02:45:29.129Z,4.00
2017-11-27T02:47:56.609Z,4.00
2017-11-27T02:50:24.832Z,4.10
2017-11-27T02:52:52.292Z,4.00
2017-11-27T02:55:19.798Z,4.10
2017-11-27T02:57:47.247Z,4.00
2017-11-27T03:00:15.492Z,3.90
2017-11-27T03:02:42.960Z,3.90
2017-11-27T03:05:11.204Z,3.80
2017-11-27T03:07:38.668Z,3.80
2017-11-27T03:10:06.145Z,3.90
2017-11-27T03:12:33.610Z,3.80
2017-11-27T03:15:01.064Z,3.80
2017-11-27T03:17:28.535Z,3.80
2017-11-27T03:19:56.756Z,3.80
2017-11-27T03:22:24.236Z,3.70
2017-11-27T03:24:51.688Z,3.70
2017-11-27T03:27:19.163Z,3.60
2017-11-27T03:29:46.656Z,3.60
2017-11-27T03:32:14.116Z,3.60
2017-11-27T03:34:41.582Z,3.60
2017-11-27T03:37:09.056Z,3.60
2017-11-27T03:39:36.512Z,3.60
2017-11-27T03:42:03.991Z,3.60
2017-11-27T03:44:31.448Z,3.60
2017-11-27T03:46:58.923Z,3.60
2017-11-27T03:49:26.384Z,3.60
2017-11-27T03:51:54.628Z,3.70
2017-11-27T03:54:22.104Z,3.60
2017-11-27T03:56:49.568Z,3.60
2017-11-27T03:59:17.796Z,3.60
2017-11-27T04:01:45.268Z,3.60
2017-11-27T04:04:12.728Z,3.60
2017-11-27T04:06:40.206Z,3.60
2017-11-27T04:09:07.683Z,3.70
2017-11-27T04:11:35.948Z,3.70
2017-11-27T04:14:04.169Z,3.70
2017-11-27T04:16:31.656Z,3.70
2017-11-27T04:18:59.116Z,3.70
2017-11-27T04:21:26.584Z,3.70
2017-11-27T04:23:54.056Z,3.70
2017-11-27T04:26:22.280Z,3.70
2017-11-27T04:28:49.756Z,3.70
2017-11-27T04:31:17.221Z,3.70
2017-11-27T04:33:44.680Z,3.70
2017-11-27T04:36:12.153Z,3.70
2017-11-27T04:38:40.393Z,3.70
2017-11-27T04:41:07.878Z,3.70
2017-11-27T04:43:36.096Z,3.70
2017-11-27T04:46:03.592Z,3.70
2017-11-27T04:48:31.072Z,3.70
2017-11-27T04:50:59.312Z,3.80
2017-11-27T04:53:26.784Z,3.80
2017-11-27T04:55:54.249Z,3.80
2017-11-27T04:58:21.728Z,3.80
2017-11-27T05:00:49.952Z,3.80
2017-11-27T05:03:18.307Z,3.80
2017-11-27T05:05:45.820Z,3.80
2017-11-27T05:08:14.068Z,3.80
2017-11-27T05:10:41.519Z,3.80
2017-11-27T05:13:08.972Z,3.80
2017-11-27T05:15:36.446Z,3.80
2017-11-27T05:18:03.905Z,3.80
2017-11-27T05:20:31.377Z,3.90
2017-11-27T05:22:59.595Z,3.90
2017-11-27T05:25:27.067Z,3.90
2017-11-27T05:27:54.527Z,3.90
2017-11-27T05:30:22.005Z,4.00
2017-11-27T05:32:49.476Z,4.00
2017-11-27T05:35:16.961Z,4.00
2017-11-27T05:37:44.416Z,4.00
2017-11-27T05:40:11.891Z,4.10
2017-11-27T05:42:39.364Z,4.10
2017-11-27T05:45:06.812Z,4.10
2017-11-27T05:47:34.284Z,4.10
2017-11-27T05:50:01.737Z,4.10
2017-11-27T05:52:29.191Z,4.10
2017-11-27T05:54:56.666Z,4.20
2017-11-27T05:57:24.144Z,4.20
2017-11-27T05:59:52.412Z,4.30
2017-11-27T06:02:19.878Z,4.30
2017-11-27T06:04:48.115Z,4.30
2017-11-27T06:07:15.571Z,4.30
2017-11-27T06:09:43.040Z,4.40
2017-11-27T06:12:10.520Z,4.40
2017-11-27T06:14:38.740Z,4.50
2017-11-27T06:17:06.226Z,4.50
2017-11-27T06:19:33.692Z,4.50
2017-11-27T06:22:01.149Z,4.50
2017-11-27T06:24:28.601Z,4.50
2017-11-27T06:26:56.161Z,4.50
2017-11-27T06:29:25.124Z,4.50
2017-11-27T06:31:52.609Z,4.50
2017-11-27T06:34:20.066Z,4.60
2017-11-27T06:36:47.540Z,4.60
2017-11-27T06:39:15.764Z,4.60
2017-11-27T06:41:43.228Z,4.60
2017-11-27T06:44:10.711Z,4.70
2017-11-27T06:46:38.152Z,4.70
2017-11-27T06:49:05.628Z,4.70
2017-11-27T06:51:33.080Z,4.80
2017-11-27T06:54:00.561Z,4.80
2017-11-27T06:56:28.798Z,4.80
2017-11-27T06:58:56.263Z,4.80
2017-11-27T07:01:23.719Z,4.80
2017-11-27T07:03:51.186Z,4.90
2017-11-27T07:06:18.652Z,4.90
2017-11-27T07:08:46.887Z,4.90
2017-11-27T07:11:14.351Z,4.90
2017-11-27T07:13:41.832Z,4.90
2017-11-27T07:16:09.299Z,5.00
2017-11-27T07:18:37.524Z,5.10
2017-11-27T07:21:04.992Z,5.10
2017-11-27T07:23:32.459Z,5.10
2017-11-27T07:25:59.935Z,5.10
2017-11-27T07:28:28.152Z,5.20
2017-11-27T07:30:55.746Z,5.20
2017-11-27T07:33:23.207Z,5.20
2017-11-27T07:35:50.672Z,5.20
2017-11-27T07:38:23.924Z,5.30
2017-11-27T07:40:51.392Z,5.30
2017-11-27T07:43:18.871Z,5.30
2017-11-27T07:45:46.332Z,5.30
2017-11-27T07:48:13.891Z,5.30
2017-11-27T07:50:41.344Z,5.40
2017-11-27T07:53:08.799Z,5.30
2017-11-27T07:55:36.279Z,5.40
2017-11-27T07:58:04.488Z,5.40
2017-11-27T08:00:31.965Z,5.40
2017-11-27T08:02:59.434Z,5.40
2017-11-27T08:05:27.675Z,5.40
2017-11-27T08:07:55.138Z,5.40
2017-11-27T08:10:22.609Z,5.50
2017-11-27T08:12:50.079Z,5.50
2017-11-27T08:15:17.555Z,5.50
2017-11-27T08:17:45.796Z,5.40
2017-11-27T08:20:13.284Z,5.40
2017-11-27T08:22:40.736Z,5.40
2017-11-27T08:25:08.199Z,5.40
2017-11-27T08:27:36.454Z,5.40
2017-11-27T08:30:03.898Z,5.50
2017-11-27T08:32:31.360Z,5.50
2017-11-27T08:34:58.868Z,5.50
2017-11-27T08:37:27.107Z,5.50
2017-11-27T08:39:54.576Z,5.50
2017-11-27T08:42:22.828Z,5.50
2017-11-27T08:44:50.291Z,5.50
2017-11-27T08:47:17.761Z,5.60
2017-11-27T08:49:45.232Z,5.60
2017-11-27T08:52:13.498Z,5.70
2017-11-27T08:54:41.744Z,5.70
2017-11-27T08:57:09.212Z,5.70
2017-11-27T08:59:38.197Z,5.70
2017-11-27T09:02:05.668Z,5.70
2017-11-27T09:04:33.139Z,5.70
2017-11-27T09:07:01.389Z,5.80
2017-11-27T09:09:28.844Z,5.80
2017-11-27T09:11:56.333Z,5.80
2017-11-27T09:14:24.565Z,5.90
2017-11-27T09:16:52.015Z,5.90
2017-11-27T09:19:19.490Z,5.90
2017-11-27T09:21:47.732Z,6.00
2017-11-27T09:24:15.224Z,6.00
2017-11-27T09:26:42.694Z,6.00
2017-11-27T09:29:10.920Z,6.10
2017-11-27T09:31:38.391Z,6.00
2017-11-27T09:34:05.936Z,6.00
2017-11-27T09:36:33.408Z,6.10
2017-11-27T09:39:00.871Z,6.10
2017-11-27T09:41:28.338Z,6.10
2017-11-27T09:43:55.820Z,6.10
2017-11-27T09:46:24.048Z,6.20
2017-11-27T09:48:51.524Z,6.10
2017-11-27T09:51:18.988Z,6.10
2017-11-27T09:53:46.444Z,6.10
2017-11-27T09:56:13.921Z,6.20
2017-11-27T09:58:42.151Z,6.10
2017-11-27T10:01:09.613Z,6.10
2017-11-27T10:03:37.079Z,6.10
2017-11-27T10:06:04.532Z,6.10
2017-11-27T10:08:32.007Z,6.10
2017-11-27T10:11:00.230Z,6.10
2017-11-27T10:13:27.696Z,6.10
2017-11-27T10:15:55.176Z,6.20
2017-11-27T10:18:22.631Z,6.20
2017-11-27T10:20:50.109Z,6.20
2017-11-27T10:23:18.334Z,6.30
2017-11-27T10:25:45.805Z,6.20
2017-11-27T10:28:13.260Z,6.20
2017-11-27T10:30:40.729Z,6.30
2017-11-27T10:33:08.300Z,6.20
2017-11-27T10:35:35.768Z,6.20
2017-11-27T10:38:04.010Z,6.20
2017-11-27T10:40:31.464Z,6.20
2017-11-27T10:42:58.919Z,6.20
2017-11-27T10:45:26.391Z,6.20
2017-11-27T10:47:53.851Z,6.20
2017-11-27T10:50:21.321Z,6.30
2017-11-27T10:52:48.792Z,6.30
2017-11-27T10:55:17.015Z,6.30
2017-11-27T10:57:44.489Z,6.30
2017-11-27T11:00:11.939Z,6.30
2017-11-27T11:02:39.408Z,6.40
2017-11-27T11:05:06.891Z,6.40
2017-11-27T11:07:35.113Z,6.40
2017-11-27T11:10:03.591Z,6.50
2017-11-27T11:12:31.065Z,6.50
2017-11-27T11:14:58.552Z,6.50
2017-11-27T11:17:25.996Z,6.50
2017-11-27T11:19:53.471Z,6.50
2017-11-27T11:22:21.714Z,6.60
2017-11-27T11:24:49.201Z,6.60
2017-11-27T11:27:17.415Z,6.60
2017-11-27T11:29:44.879Z,6.60
2017-11-27T11:32:12.340Z,6.50
2017-11-27T11:34:39.835Z,6.50
2017-11-27T11:37:07.304Z,6.60
2017-11-27T11:39:35.533Z,6.60
2017-11-27T11:42:03.010Z,6.60
2017-11-27T11:44:30.464Z,6.70
2017-11-27T11:46:57.935Z,6.70
2017-11-27T11:49:26.173Z,6.60
2017-11-27T11:51:53.644Z,6.60
2017-11-27T11:54:21.097Z,6.60
2017-11-27T11:56:48.575Z,6.60
2017-11-27T11:59:16.056Z,6.70
2017-11-27T12:01:44.271Z,6.70
2017-11-27T12:04:11.748Z,6.60
2017-11-27T12:06:39.269Z,6.60
2017-11-27T12:09:06.732Z,6.60
2017-11-27T12:11:34.237Z,6.70
2017-11-27T12:14:02.473Z,6.70
2017-11-27T12:16:29.932Z,6.70
2017-11-27T12:18:57.415Z,6.70
2017-11-27T12:21:24.888Z,6.70
2017-11-27T12:23:53.112Z,6.80
2017-11-27T12:26:20.585Z,6.80
2017-11-27T12:28:48.039Z,6.80
2017-11-27T12:31:15.518Z,6.80
2017-11-27T12:33:42.981Z,6.80
2017-11-27T12:36:10.468Z,6.80
2017-11-27T12:38:37.934Z,6.90
2017-11-27T12:41:05.389Z,6.90
2017-11-27T12:43:32.856Z,6.90
2017-11-27T12:46:00.321Z,6.90
2017-11-27T12:48:27.796Z,7.00
2017-11-27T12:50:55.277Z,6.90
2017-11-27T12:53:22.746Z,6.90
2017-11-27T12:55:51.001Z,6.90
2017-11-27T12:58:18.480Z,6.90
2017-11-27T13:00:46.700Z,6.90
2017-11-27T13:03:14.149Z,6.90
2017-11-27T13:05:41.631Z,6.90
2017-11-27T13:08:09.079Z,6.90
2017-11-27T13:10:36.553Z,6.90
2017-11-27T13:13:04.013Z,6.90
2017-11-27T13:15:31.492Z,7.00
2017-11-27T13:17:59.717Z,6.90
2017-11-27T13:20:27.168Z,7.00
2017-11-27T13:22:54.635Z,7.00
2017-11-27T13:25:23.948Z,7.00
2017-11-27T13:27:51.428Z,7.00
2017-11-27T13:30:19.661Z,7.10
2017-11-27T13:32:47.128Z,7.10
2017-11-27T13:35:14.596Z,7.00
2017-11-27T13:37:42.049Z,7.10
2017-11-27T13:40:09.532Z,7.20
2017-11-27T13:42:37.759Z,7.10
2017-11-27T13:45:05.219Z,7.10
2017-11-27T13:47:32.668Z,7.10
2017-11-27T13:50:00.136Z,7.10
2017-11-27T13:52:27.591Z,7.10
2017-11-27T13:54:55.083Z,7.10
2017-11-27T13:57:23.312Z,7.10
2017-11-27T13:59:50.784Z,7.10
2017-11-27T14:02:18.255Z,7.20
2017-11-27T14:04:45.735Z,7.20
2017-11-27T14:07:13.953Z,7.20
2017-11-27T14:09:41.425Z,7.20
2017-11-27T14:12:08.892Z,7.20
2017-11-27T14:14:36.356Z,7.10
2017-11-27T14:17:03.845Z,7.10
2017-11-27T14:19:32.081Z,7.10
2017-11-27T14:21:59.536Z,7.10
2017-11-27T14:24:27.004Z,7.10
2017-11-27T14:26:54.469Z,7.10
2017-11-27T14:29:21.947Z,7.10
2017-11-27T14:31:50.160Z,7.00
2017-11-27T14:34:19.221Z,7.00
2017-11-27T14:36:46.692Z,7.00
2017-11-27T14:39:14.149Z,7.00
2017-11-27T14:41:41.629Z,7.00
2017-11-27T14:44:09.100Z,7.00
2017-11-27T14:46:36.588Z,7.00
2017-11-27T14:49:04.823Z,7.00
2017-11-27T14:51:32.292Z,7.00
2017-11-27T14:53:59.759Z,7.00
2017-11-27T14:56:27.997Z,7.10
2017-11-27T14:58:55.459Z,7.10
2017-11-27T15:01:22.936Z,7.10
2017-11-27T15:03:50.392Z,7.10
2017-11-27T15:06:17.864Z,7.20
2017-11-27T15:08:46.540Z,7.20
2017-11-27T15:11:14.012Z,7.10
2017-11-27T15:13:42.228Z,7.20
2017-11-27T15:16:09.691Z,7.10
2017-11-27T15:18:37.162Z,7.30
2017-11-27T15:21:04.617Z,7.20
2017-11-27T15:23:32.116Z,7.20
2017-11-27T15:26:00.339Z,7.10
2017-11-27T15:28:27.789Z,7.10
2017-11-27T15:30:55.282Z,7.20
2017-11-27T15:33:22.744Z,7.20
2017-11-27T15:35:50.982Z,7.10
2017-11-27T15:38:18.460Z,7.10
2017-11-27T15:40:45.945Z,7.10
2017-11-27T15:43:16.908Z,7.20
2017-11-27T15:45:44.387Z,7.20
2017-11-27T15:48:11.863Z,7.10
2017-11-27T15:50:39.332Z,7.10
2017-11-27T15:53:06.836Z,7.10
2017-11-27T15:55:34.314Z,7.20
2017-11-27T15:58:01.768Z,7.20
2017-11-27T16:00:29.501Z,7.20
2017-11-27T16:02:56.969Z,7.20
2017-11-27T16:05:24.432Z,7.20
2017-11-27T16:07:51.896Z,7.20
2017-11-27T16:10:19.357Z,7.20
2017-11-27T16:12:46.844Z,7.20
2017-11-27T16:15:15.084Z,7.30
2017-11-27T16:20:16.560Z,7.40
2017-11-27T16:22:44.053Z,7.30
2017-11-27T16:25:13.041Z,7.40
2017-11-27T16:27:40.490Z,7.40
2017-11-27T16:30:07.968Z,7.40
2017-11-27T16:32:36.192Z,7.40
2017-11-27T16:35:03.682Z,7.40
2017-11-27T16:37:31.913Z,7.50
2017-11-27T16:39:59.393Z,7.50
2017-11-27T16:42:26.868Z,7.40
2017-11-27T16:44:54.315Z,7.40
2017-11-27T16:47:21.784Z,7.40
2017-11-27T16:49:49.236Z,7.50
2017-11-27T16:52:16.724Z,7.50
2017-11-27T16:54:44.954Z,7.50
2017-11-27T16:57:12.417Z,7.50
2017-11-27T16:59:39.944Z,7.50
2017-11-27T17:02:07.423Z,7.50
2017-11-27T17:04:34.900Z,7.50
2017-11-27T17:07:02.386Z,7.50
2017-11-27T17:09:30.605Z,7.50
2017-11-27T17:11:58.085Z,7.50
2017-11-27T17:14:25.547Z,7.50
2017-11-27T17:16:53.032Z,7.50
2017-11-27T17:19:20.518Z,7.40
2017-11-27T17:21:47.980Z,7.40
2017-11-27T17:24:15.473Z,7.40
2017-11-27T17:26:42.920Z,7.40
2017-11-27T17:29:10.417Z,7.40
2017-11-27T17:31:37.873Z,7.50
2017-11-27T17:34:05.341Z,7.50
2017-11-27T17:36:32.805Z,7.50
2017-11-27T17:39:00.285Z,7.50
2017-11-27T17:41:27.753Z,7.60
2017-11-27T17:43:55.229Z,7.60
2017-11-27T17:46:22.699Z,7.60
2017-11-27T17:48:50.934Z,7.70
2017-11-27T17:51:18.400Z,7.70
2017-11-27T17:53:45.861Z,7.70
2017-11-27T17:56:13.344Z,7.70
2017-11-27T17:58:41.571Z,7.70
2017-11-27T18:01:09.053Z,7.70
2017-11-27T18:03:36.541Z,7.70
2017-11-27T18:06:04.748Z,7.80
2017-11-27T18:08:32.225Z,7.70
2017-11-27T18:10:59.725Z,7.80
2017-11-27T18:13:27.940Z,7.90
2017-11-27T18:15:55.394Z,7.80
2017-11-27T18:18:22.887Z,7.90
2017-11-27T18:20:50.353Z,7.90
2017-11-27T18:23:17.874Z,7.90
2017-11-27T18:25:45.348Z,7.90
2017-11-27T18:28:12.801Z,7.90
2017-11-27T18:30:40.295Z,7.90
2017-11-27T18:33:08.519Z,7.80
2017-11-27T18:35:35.984Z,7.80
2017-11-27T18:38:03.511Z,7.80
2017-11-27T18:40:31.732Z,7.80
2017-11-27T18:42:59.964Z,7.80
2017-11-27T18:45:27.436Z,7.80
2017-11-27T18:47:54.972Z,7.80
2017-11-27T18:50:22.448Z,7.80
2017-11-27T18:52:49.925Z,7.80
2017-11-27T18:55:17.596Z,7.80
2017-11-27T18:57:45.093Z,7.80
2017-11-27T19:00:12.548Z,7.80
2017-11-27T19:02:40.027Z,7.80
2017-11-27T19:05:07.536Z,7.80
2017-11-27T19:07:35.781Z,7.70
2017-11-27T19:10:03.247Z,7.70
2017-11-27T19:12:30.740Z,7.70
2017-11-27T19:14:58.968Z,7.60
2017-11-27T19:17:26.452Z,7.60
2017-11-27T19:19:54.079Z,7.60
2017-11-27T19:22:21.557Z,7.60
2017-11-27T19:24:50.522Z,7.60
2017-11-27T19:27:18.025Z,7.60
2017-11-27T19:29:46.263Z,7.60
2017-11-27T19:32:13.765Z,7.60
2017-11-27T19:34:42.044Z,7.60
2017-11-27T19:37:10.277Z,7.70
2017-11-27T19:39:37.760Z,7.70
2017-11-27T19:42:05.253Z,7.70
2017-11-27T19:44:32.724Z,7.70
2017-11-27T19:47:00.271Z,7.70
2017-11-27T19:49:27.738Z,7.70
2017-11-27T19:51:55.212Z,7.80
2017-11-27T19:54:22.697Z,7.80
2017-11-27T19:56:50.926Z,7.80
2017-11-27T19:59:18.441Z,7.80
2017-11-27T20:01:46.675Z,7.80
2017-11-27T20:04:14.135Z,7.80
2017-11-27T20:06:41.641Z,7.70
2017-11-27T20:09:09.893Z,7.70
2017-11-27T20:11:37.394Z,7.70
2017-11-27T20:14:04.852Z,7.70
2017-11-27T20:16:32.332Z,7.70
2017-11-27T20:18:59.809Z,7.70
2017-11-27T20:21:27.288Z,7.70
2017-11-27T20:23:55.532Z,7.80
2017-11-27T20:26:23.027Z,7.70
2017-11-27T20:28:51.274Z,7.80
2017-11-27T20:31:18.771Z,7.80
2017-11-27T20:33:46.248Z,7.80
2017-11-27T20:36:14.504Z,7.80
2017-11-27T20:38:42.876Z,7.70
2017-11-27T20:41:10.349Z,7.80
2017-11-27T20:43:37.854Z,7.80
2017-11-27T20:46:05.362Z,7.80
2017-11-27T20:48:32.845Z,7.70
2017-11-27T20:51:00.314Z,7.70
2017-11-27T20:53:27.804Z,7.70
2017-11-27T20:55:56.047Z,7.60
2017-11-27T20:58:23.535Z,7.60
2017-11-27T21:00:51.775Z,7.20
2017-11-27T21:03:19.245Z,7.20
2017-11-27T21:05:46.720Z,7.10
2017-11-27T21:08:14.948Z,6.30
2017-11-27T21:10:42.431Z,6.30
2017-11-27T21:13:09.907Z,6.00
2017-11-27T21:15:38.140Z,5.70
2017-11-27T21:18:05.745Z,5.70
2017-11-27T21:20:33.964Z,5.60
2017-11-27T21:23:01.448Z,5.50
2017-11-27T21:25:28.931Z,5.50
2017-11-27T21:27:57.167Z,5.50
2017-11-27T21:30:24.653Z,5.50
2017-11-27T21:32:52.965Z,5.50
2017-11-27T21:35:20.421Z,5.50
2017-11-27T21:37:47.936Z,5.50
2017-11-27T21:40:15.424Z,5.50
2017-11-27T21:42:42.883Z,5.60
2017-11-27T21:45:10.345Z,5.60
2017-11-27T21:47:37.809Z,5.70
2017-11-27T21:50:05.378Z,5.70
2017-11-27T21:52:33.991Z,5.70
2017-11-27T21:55:01.452Z,5.70
2017-11-27T21:57:29.088Z,5.70
2017-11-27T21:59:56.540Z,5.80
2017-11-27T22:02:24.044Z,5.80
2017-11-27T22:04:52.280Z,5.80
2017-11-27T22:07:19.772Z,5.80
2017-11-27T22:09:47.987Z,5.80
2017-11-27T22:12:15.449Z,5.80
2017-11-27T22:14:42.920Z,5.80
2017-11-27T22:17:10.385Z,5.80
2017-11-27T22:19:37.857Z,5.80
2017-11-27T22:22:05.313Z,5.80
2017-11-27T22:24:32.791Z,5.80
2017-11-27T22:27:01.877Z,5.80
2017-11-27T22:29:29.337Z,5.80
2017-11-27T22:31:57.579Z,5.80
2017-11-27T22:34:25.049Z,5.80
2017-11-27T22:36:52.520Z,5.70
2017-11-27T22:39:20.752Z,5.60
2017-11-27T22:41:48.236Z,5.60
2017-11-27T22:44:15.701Z,5.60
2017-11-27T22:46:43.199Z,5.60
2017-11-27T22:49:10.656Z,5.60
2017-11-27T22:51:38.148Z,5.60
2017-11-27T22:54:05.600Z,5.60
2017-11-27T22:56:33.052Z,5.50
2017-11-27T22:59:00.563Z,5.50
2017-11-27T23:01:28.791Z,5.50
2017-11-27T23:03:56.272Z,5.50
2017-11-27T23:06:23.782Z,5.50
2017-11-27T23:08:51.252Z,5.50
2017-11-27T23:11:18.719Z,5.40
2017-11-27T23:13:46.175Z,5.50
2017-11-27T23:16:13.648Z,5.50
2017-11-27T23:18:41.115Z,5.40
2017-11-27T23:21:10.101Z,5.30
2017-11-27T23:23:37.565Z,5.30
2017-11-27T23:26:05.030Z,5.30
2017-11-27T23:28:33.253Z,5.30
2017-11-27T23:31:00.732Z,5.30
2017-11-27T23:33:28.209Z,5.30
2017-11-27T23:35:56.268Z,5.30
2017-11-27T23:38:23.740Z,5.30
2017-11-27T23:40:51.192Z,5.30
2017-11-27T23:43:18.668Z,5.30
2017-11-27T23:45:46.900Z,5.30
2017-11-27T23:48:14.364Z,5.30
2017-11-27T23:50:41.836Z,5.30
2017-11-27T23:53:09.292Z,5.30
2017-11-27T23:55:37.541Z,5.40
2017-11-27T23:58:04.987Z,5.40
